createdAt,value
2017-06-10T13:14:47.606Z,24.60
2017-06-10T13:17:16.579Z,24.60
2017-06-10T13:19:44.446Z,24.60
2017-06-10T13:22:12.313Z,24.70
2017-06-10T13:28:47.200Z,28.60
2017-06-10T13:31:15.699Z,25.80
2017-06-10T13:33:44.338Z,25.70
2017-06-10T13:36:12.204Z,25.60
2017-06-10T13:38:41.012Z,25.30
2017-06-10T13:41:08.701Z,25.50
2017-06-10T13:43:37.147Z,25.60
2017-06-10T13:46:04.901Z,25.60
2017-06-10T13:48:32.612Z,25.80
2017-06-10T13:51:01.659Z,25.80
2017-06-10T13:53:29.441Z,25.80
2017-06-10T13:55:58.124Z,25.60
2017-06-10T13:58:26.014Z,25.30
2017-06-10T14:00:54.763Z,24.80
2017-06-10T14:03:33.624Z,24.70
2017-06-10T14:06:01.268Z,24.50
2017-06-10T14:11:05.891Z,24.20
2017-06-10T14:13:33.660Z,24.20
2017-06-10T14:16:01.518Z,24.20
2017-06-10T14:18:29.945Z,24.20
2017-06-10T14:20:58.500Z,24.10
2017-06-10T14:23:26.182Z,24.00
2017-06-10T14:25:54.320Z,24.00
2017-06-10T14:28:22.358Z,24.00
2017-06-10T14:30:50.380Z,24.20
2017-06-10T14:33:18.944Z,24.30
2017-06-10T14:35:48.040Z,24.30
2017-06-10T14:38:15.906Z,24.30
2017-06-10T14:40:43.685Z,24.20
2017-06-10T14:43:11.574Z,24.30
2017-06-10T14:45:39.916Z,24.40
2017-06-10T14:48:08.048Z,24.20
2017-06-10T14:50:37.000Z,24.20
2017-06-10T14:53:04.957Z,24.00
2017-06-10T14:55:33.226Z,24.10
2017-06-10T14:58:02.321Z,24.20
2017-06-10T15:00:30.803Z,24.40
2017-06-10T15:02:59.015Z,24.50
2017-06-10T15:05:27.541Z,24.50
2017-06-10T15:07:55.549Z,24.50
2017-06-10T15:10:23.836Z,24.50
2017-06-10T15:12:52.185Z,24.50
2017-06-10T15:15:20.588Z,24.30
2017-06-10T15:17:48.669Z,24.00
2017-06-10T15:20:16.757Z,23.80
2017-06-10T15:22:44.592Z,23.70
2017-06-10T15:25:12.542Z,23.60
2017-06-10T15:27:40.308Z,23.40
2017-06-10T15:30:08.174Z,23.40
2017-06-10T15:32:36.451Z,23.30
2017-06-10T15:35:04.949Z,23.60
2017-06-10T15:37:32.799Z,24.20
2017-06-10T15:40:00.871Z,24.50
2017-06-10T15:42:28.655Z,25.00
2017-06-10T15:44:56.400Z,25.10
2017-06-10T15:47:24.266Z,25.10
2017-06-10T15:49:52.048Z,24.60
2017-06-10T15:52:21.055Z,24.80
2017-06-10T15:54:49.625Z,24.50
2017-06-10T15:57:17.714Z,24.40
2017-06-10T15:59:45.758Z,24.40
2017-06-10T16:02:13.440Z,24.30
2017-06-10T16:04:41.181Z,24.10
2017-06-10T16:07:09.165Z,24.00
2017-06-10T16:09:36.827Z,24.10
2017-06-10T16:12:05.187Z,24.00
2017-06-10T16:14:33.269Z,24.00
2017-06-10T16:17:01.126Z,24.00
2017-06-10T16:19:29.333Z,23.90
2017-06-10T16:21:57.269Z,23.90
2017-06-10T16:24:25.748Z,23.90
2017-06-10T16:26:53.718Z,23.80
2017-06-10T16:29:21.606Z,23.80
2017-06-10T16:31:49.578Z,23.80
2017-06-10T16:34:17.421Z,23.70
2017-06-10T16:36:45.186Z,23.80
2017-06-10T16:39:13.051Z,23.80
2017-06-10T16:41:40.919Z,23.70
2017-06-10T16:44:08.897Z,23.70
2017-06-10T16:46:37.797Z,23.60
2017-06-10T16:49:05.859Z,23.60
2017-06-10T16:51:33.614Z,23.50
2017-06-10T16:54:01.482Z,23.50
2017-06-10T16:56:29.553Z,23.50
2017-06-10T16:58:57.965Z,23.50
2017-06-10T17:01:25.953Z,23.40
2017-06-10T17:03:53.972Z,23.40
2017-06-10T17:06:21.752Z,23.40
2017-06-10T17:08:49.983Z,23.40
2017-06-10T17:11:17.777Z,23.30
2017-06-10T17:13:45.722Z,23.30
2017-06-10T17:16:13.423Z,23.30
2017-06-10T17:18:41.379Z,23.20
2017-06-10T17:21:09.160Z,23.20
2017-06-10T17:23:37.173Z,23.20
2017-06-10T17:26:04.978Z,23.10
2017-06-10T17:28:33.488Z,23.10
2017-06-10T17:31:01.958Z,23.10
2017-06-10T17:33:29.621Z,23.00
2017-06-10T17:35:57.571Z,23.10
2017-06-10T17:38:25.915Z,23.00
2017-06-10T17:40:53.752Z,23.00
2017-06-10T17:43:22.413Z,22.90
2017-06-10T17:45:50.192Z,22.80
2017-06-10T17:48:18.060Z,22.90
2017-06-10T17:50:46.003Z,22.90
2017-06-10T17:53:14.085Z,22.90
2017-06-10T17:55:41.869Z,22.80
2017-06-10T18:00:46.409Z,22.60
2017-06-10T18:03:14.705Z,22.60
2017-06-10T18:05:42.553Z,22.60
2017-06-10T18:08:10.511Z,22.60
2017-06-10T18:10:39.130Z,22.50
2017-06-10T18:13:07.054Z,22.50
2017-06-10T18:15:35.127Z,22.40
2017-06-10T18:18:02.912Z,22.30
2017-06-10T18:20:30.652Z,22.20
2017-06-10T18:22:58.364Z,22.20
2017-06-10T18:25:26.182Z,22.20
2017-06-10T18:27:53.964Z,22.20
2017-06-10T18:30:21.706Z,22.20
2017-06-10T18:32:49.496Z,22.10
2017-06-10T18:35:17.991Z,21.90
2017-06-10T18:37:45.732Z,21.80
2017-06-10T18:40:13.400Z,21.70
2017-06-10T18:42:41.148Z,21.70
2017-06-10T18:45:08.928Z,21.60
2017-06-10T18:47:36.676Z,21.60
2017-06-10T18:50:04.543Z,21.40
2017-06-10T18:52:32.613Z,21.50
2017-06-10T18:55:00.400Z,21.30
2017-06-10T18:57:28.246Z,21.20
2017-06-10T18:59:56.113Z,21.10
2017-06-10T19:02:24.183Z,21.10
2017-06-10T19:04:52.697Z,21.00
2017-06-10T19:07:20.392Z,21.10
2017-06-10T19:09:48.399Z,21.10
2017-06-10T19:12:16.776Z,21.00
2017-06-10T19:14:45.577Z,20.90
2017-06-10T19:17:13.431Z,20.80
2017-06-10T19:19:41.298Z,20.60
2017-06-10T19:22:09.375Z,20.50
2017-06-10T19:24:37.237Z,20.50
2017-06-10T19:27:05.717Z,20.30
2017-06-10T19:29:33.425Z,20.20
2017-06-10T19:32:01.348Z,20.00
2017-06-10T19:34:29.216Z,19.90
2017-06-10T19:36:57.082Z,19.90
2017-06-10T19:39:24.948Z,19.70
2017-06-10T19:41:52.815Z,19.60
2017-06-10T19:44:21.328Z,19.50
2017-06-10T19:46:49.373Z,19.40
2017-06-10T19:49:17.234Z,19.20
2017-06-10T19:51:45.306Z,19.10
2017-06-10T19:54:13.173Z,19.00
2017-06-10T19:56:40.958Z,19.00
2017-06-10T19:59:09.315Z,19.00
2017-06-10T20:01:37.797Z,18.90
2017-06-10T20:04:06.153Z,18.80
2017-06-10T20:06:34.162Z,18.80
2017-06-10T20:09:01.937Z,18.70
2017-06-10T20:11:29.673Z,18.60
2017-06-10T20:13:57.661Z,18.60
2017-06-10T20:16:26.021Z,18.50
2017-06-10T20:18:53.889Z,18.40
2017-06-10T20:21:21.755Z,18.40
2017-06-10T20:23:49.622Z,18.30
2017-06-10T20:26:18.241Z,18.20
2017-06-10T20:28:46.092Z,18.20
2017-06-10T20:31:13.835Z,18.20
2017-06-10T20:33:41.616Z,18.10
2017-06-10T20:36:09.969Z,17.90
2017-06-10T20:38:37.846Z,17.90
2017-06-10T20:41:05.833Z,18.00
2017-06-10T20:43:33.509Z,18.00
2017-06-10T20:46:01.841Z,17.90
2017-06-10T20:48:29.721Z,17.80
2017-06-10T20:50:58.130Z,17.80
2017-06-10T20:53:27.200Z,17.60
2017-06-10T20:55:55.184Z,17.50
2017-06-10T20:58:22.933Z,17.50
2017-06-10T21:00:50.795Z,18.00
2017-06-10T21:03:18.867Z,17.90
2017-06-10T21:05:46.651Z,17.70
2017-06-10T21:08:14.519Z,17.80
2017-06-10T21:10:43.204Z,17.60
2017-06-10T21:13:11.153Z,17.50
2017-06-10T21:15:38.936Z,17.50
2017-06-10T21:18:07.247Z,17.50
2017-06-10T21:20:35.165Z,17.40
2017-06-10T21:23:03.648Z,17.40
2017-06-10T21:25:32.128Z,17.50
2017-06-10T21:27:59.991Z,17.50
2017-06-10T21:30:27.859Z,17.40
2017-06-10T21:32:55.540Z,17.40
2017-06-10T21:35:23.866Z,17.40
2017-06-10T21:37:51.686Z,17.30
2017-06-10T21:40:19.632Z,17.30
2017-06-10T21:42:47.261Z,17.30
2017-06-10T21:45:15.161Z,17.20
2017-06-10T21:47:43.152Z,17.10
2017-06-10T21:50:10.895Z,17.20
2017-06-10T21:52:38.760Z,17.30
2017-06-10T21:55:07.242Z,17.10
2017-06-10T21:57:35.348Z,17.10
2017-06-10T22:00:03.544Z,17.00
2017-06-10T22:02:31.257Z,16.90
2017-06-10T22:04:59.015Z,16.90
2017-06-10T22:07:26.882Z,16.80
2017-06-10T22:09:54.666Z,16.70
2017-06-10T22:12:22.410Z,16.70
2017-06-10T22:14:50.193Z,16.80
2017-06-10T22:17:17.939Z,16.60
2017-06-10T22:19:46.401Z,16.70
2017-06-10T22:22:14.286Z,16.60
2017-06-10T22:24:42.155Z,16.70
2017-06-10T22:27:10.021Z,16.70
2017-06-10T22:29:37.806Z,16.40
2017-06-10T22:32:05.637Z,16.30
2017-06-10T22:34:33.268Z,16.20
2017-06-10T22:37:00.980Z,16.00
2017-06-10T22:39:28.739Z,16.10
2017-06-10T22:41:56.606Z,16.30
2017-06-10T22:44:24.388Z,16.10
2017-06-10T22:46:52.338Z,15.90
2017-06-10T22:49:20.205Z,15.70
2017-06-10T22:51:48.640Z,15.60
2017-06-10T22:54:16.681Z,15.40
2017-06-10T22:56:44.683Z,15.30
2017-06-10T22:59:12.491Z,15.10
2017-06-10T23:01:40.977Z,15.00
2017-06-10T23:04:08.857Z,15.00
2017-06-10T23:06:36.521Z,15.00
2017-06-10T23:09:04.470Z,14.80
2017-06-10T23:11:32.105Z,14.70
2017-06-10T23:13:59.920Z,14.70
2017-06-10T23:16:27.848Z,14.80
2017-06-10T23:18:55.856Z,14.80
2017-06-10T23:21:23.721Z,14.80
2017-06-10T23:23:51.466Z,14.70
2017-06-10T23:26:19.962Z,15.10
2017-06-10T23:28:48.819Z,14.70
2017-06-10T23:31:16.842Z,14.60
2017-06-10T23:33:45.389Z,14.50
2017-06-10T23:36:13.494Z,14.50
2017-06-10T23:38:41.256Z,14.50
2017-06-10T23:41:09.108Z,14.50
2017-06-10T23:43:36.860Z,14.60
2017-06-10T23:46:04.488Z,14.50
2017-06-10T23:48:32.180Z,14.60
2017-06-10T23:51:00.506Z,14.50
2017-06-10T23:53:28.323Z,14.50
2017-06-10T23:55:56.191Z,14.40
2017-06-10T23:58:23.980Z,14.40
